createdAt,value
2018-05-03T00:04:31.635Z,3.33
2018-05-03T00:09:36.807Z,1.73
2018-05-03T00:14:40.111Z,3.33
2018-05-03T00:19:42.420Z,2.20
2018-05-03T00:24:43.632Z,2.17
2018-05-03T00:29:47.002Z,2.50
2018-05-03T00:34:49.344Z,2.93
2018-05-03T00:39:50.684Z,3.00
2018-05-03T00:44:57.271Z,2.77
2018-05-03T00:49:59.553Z,3.33
2018-05-03T00:55:04.370Z,3.77
2018-05-03T01:00:06.410Z,2.80
2018-05-03T01:05:09.677Z,3.23
2018-05-03T01:10:17.058Z,2.70
2018-05-03T01:15:27.082Z,2.33
2018-05-03T01:20:31.799Z,2.53
2018-05-03T01:26:00.103Z,3.03
2018-05-03T01:31:07.396Z,4.33
2018-05-03T01:36:25.338Z,3.53
2018-05-03T01:41:27.330Z,2.43
2018-05-03T01:46:29.615Z,2.23
2018-05-03T01:51:56.480Z,4.03
2018-05-03T01:57:17.128Z,3.83
2018-05-03T02:02:23.485Z,3.70
2018-05-03T02:07:24.709Z,2.63
2018-05-03T02:12:25.998Z,3.83
2018-05-03T02:17:27.949Z,3.77
2018-05-03T02:22:30.273Z,4.13
2018-05-03T02:27:33.548Z,3.17
2018-05-03T02:32:38.173Z,3.93
2018-05-03T02:37:53.014Z,2.93
2018-05-03T02:42:59.336Z,2.50
2018-05-03T02:53:28.223Z,2.93
2018-05-03T02:58:45.729Z,3.80
2018-05-03T03:04:09.532Z,3.37
2018-05-03T03:09:35.158Z,3.63
2018-05-03T03:14:56.344Z,3.07
2018-05-03T03:20:17.860Z,4.17
2018-05-03T03:25:38.109Z,3.40
2018-05-03T03:30:57.741Z,2.80
2018-05-03T03:36:12.237Z,3.20
2018-05-03T03:41:26.385Z,4.73
2018-05-03T03:46:27.807Z,3.63
2018-05-03T03:51:29.207Z,4.90
2018-05-03T03:56:31.507Z,4.30
2018-05-03T04:01:34.610Z,3.93
2018-05-03T04:06:35.944Z,3.27
2018-05-03T04:11:38.322Z,3.43
2018-05-03T04:16:40.619Z,3.17
2018-05-03T04:21:55.021Z,3.10
2018-05-03T04:26:57.059Z,4.47
2018-05-03T04:31:58.306Z,9.30
2018-05-03T04:36:59.565Z,5.33
2018-05-03T04:42:00.841Z,4.03
2018-05-03T04:47:02.208Z,3.27
2018-05-03T04:52:03.557Z,6.13
2018-05-03T04:57:04.803Z,7.17
2018-05-03T05:02:06.058Z,3.70
2018-05-03T05:07:07.351Z,5.23
2018-05-03T05:12:09.562Z,4.90
2018-05-03T05:17:16.145Z,6.60
2018-05-03T05:22:18.964Z,6.23
2018-05-03T05:27:22.189Z,3.87
2018-05-03T05:32:27.832Z,5.87
2018-05-03T05:37:30.148Z,3.97
2018-05-03T05:42:31.509Z,6.43
2018-05-03T05:47:53.144Z,5.53
2018-05-03T05:52:58.835Z,6.10
2018-05-03T05:58:00.050Z,4.40
2018-05-03T06:03:20.123Z,9.27
2018-05-03T06:08:22.340Z,6.67
2018-05-03T06:24:04.687Z,9.20
2018-05-03T06:29:08.050Z,4.87
2018-05-03T06:34:09.441Z,8.57
2018-05-03T06:39:10.769Z,10.70
2018-05-03T06:44:12.160Z,6.83
2018-05-03T06:49:15.186Z,8.00
2018-05-03T06:54:16.461Z,10.50
2018-05-03T06:59:17.750Z,9.50
2018-05-03T07:04:20.147Z,8.70
2018-05-03T07:09:21.516Z,13.47
2018-05-03T07:14:23.775Z,15.67
2018-05-03T07:19:27.034Z,17.17
2018-05-03T07:24:29.389Z,16.63
2018-05-03T07:29:30.903Z,16.40
2018-05-03T07:34:32.220Z,13.93
2018-05-03T07:39:33.545Z,14.00
2018-05-03T07:44:34.842Z,15.50
2018-05-03T07:49:36.179Z,13.33
2018-05-03T07:54:37.479Z,10.93
2018-05-03T07:59:40.597Z,10.40
2018-05-03T08:04:42.693Z,10.40
2018-05-03T08:09:45.811Z,12.67
2018-05-03T08:14:47.232Z,10.30
2018-05-03T08:19:48.639Z,9.97
2018-05-03T08:24:50.019Z,16.07
2018-05-03T08:29:51.386Z,9.50
2018-05-03T08:34:53.840Z,7.37
2018-05-03T08:39:55.220Z,11.53
2018-05-03T08:44:57.550Z,8.73
2018-05-03T08:49:59.654Z,7.77
2018-05-03T08:55:01.065Z,6.87
2018-05-03T09:00:02.429Z,6.80
2018-05-03T09:05:03.798Z,4.33
2018-05-03T09:10:05.178Z,7.23
2018-05-03T09:15:06.740Z,5.17
2018-05-03T09:20:08.077Z,5.47
2018-05-03T09:25:09.523Z,5.97
2018-05-03T09:30:10.863Z,6.60
2018-05-03T09:35:12.945Z,5.07
2018-05-03T09:40:14.969Z,5.07
2018-05-03T09:45:16.324Z,6.90
2018-05-03T09:50:17.614Z,6.33
2018-05-03T09:55:19.055Z,7.70
2018-05-03T10:00:21.391Z,6.27
2018-05-03T10:05:22.726Z,8.00
2018-05-03T10:10:24.157Z,4.93
2018-05-03T10:15:25.541Z,8.47
2018-05-03T10:20:26.820Z,4.60
2018-05-03T10:25:28.342Z,4.60
2018-05-03T10:30:29.778Z,4.57
2018-05-03T10:35:31.790Z,4.80
2018-05-03T10:40:33.621Z,6.90
2018-05-03T10:45:36.788Z,8.13
2018-05-03T10:50:39.112Z,5.87
2018-05-03T10:55:40.405Z,5.77
2018-05-03T11:00:42.764Z,4.67
2018-05-03T11:05:44.117Z,5.03
2018-05-03T11:10:45.541Z,4.47
2018-05-03T11:15:46.912Z,4.13
2018-05-03T11:20:48.276Z,5.47
2018-05-03T11:25:50.747Z,5.77
2018-05-03T11:30:54.097Z,6.77
2018-05-03T11:35:55.818Z,5.50
2018-05-03T11:40:58.202Z,5.50
2018-05-03T11:45:59.581Z,6.23
2018-05-03T11:51:00.931Z,7.17
2018-05-03T11:56:03.266Z,5.30
2018-05-03T12:01:04.708Z,4.33
2018-05-03T12:06:06.258Z,5.50
2018-05-03T12:11:08.441Z,5.30
2018-05-03T12:16:09.780Z,6.10
2018-05-03T12:21:11.090Z,4.47
2018-05-03T12:26:12.377Z,4.97
2018-05-03T12:31:13.877Z,5.43
2018-05-03T12:36:15.367Z,6.13
2018-05-03T12:41:23.363Z,4.63
2018-05-03T12:46:25.593Z,4.53
2018-05-03T12:51:27.209Z,3.60
2018-05-03T12:56:28.532Z,3.60
2018-05-03T13:01:31.741Z,6.60
2018-05-03T13:06:33.150Z,5.83
2018-05-03T13:11:35.402Z,2.87
2018-05-03T13:16:38.689Z,3.17
2018-05-03T13:21:40.058Z,2.90
2018-05-03T13:26:41.508Z,4.53
2018-05-03T13:31:43.406Z,1.93
2018-05-03T13:36:44.798Z,2.00
2018-05-03T13:41:47.346Z,4.37
2018-05-03T13:46:51.635Z,4.97
2018-05-03T13:51:54.061Z,2.83
2018-05-03T13:56:55.658Z,2.37
2018-05-03T14:01:58.498Z,3.20
2018-05-03T14:07:00.889Z,3.20
2018-05-03T14:12:03.264Z,2.93
2018-05-03T14:17:05.598Z,2.50
2018-05-03T14:22:06.992Z,2.97
2018-05-03T14:27:09.126Z,4.00
2018-05-03T14:32:10.401Z,4.40
2018-05-03T14:37:12.455Z,2.20
2018-05-03T14:42:13.723Z,1.73
2018-05-03T14:47:15.020Z,3.90
2018-05-03T14:52:16.505Z,3.93
2018-05-03T14:57:18.529Z,1.73
2018-05-03T15:02:20.957Z,4.17
2018-05-03T15:07:22.291Z,3.30
2018-05-03T15:12:27.017Z,6.73
2018-05-03T15:17:28.391Z,2.80
2018-05-03T15:22:30.503Z,2.53
2018-05-03T15:27:31.918Z,1.90
2018-05-03T15:32:33.193Z,3.90
2018-05-03T15:37:34.555Z,3.23
2018-05-03T15:42:36.656Z,2.10
2018-05-03T15:47:38.947Z,1.60
2018-05-03T15:52:40.301Z,2.27
2018-05-03T15:57:42.537Z,4.87
2018-05-03T16:02:44.917Z,1.57
2018-05-03T16:07:48.066Z,2.27
2018-05-03T16:12:49.455Z,2.57
2018-05-03T16:17:54.398Z,2.23
2018-05-03T16:22:55.766Z,1.80
2018-05-03T16:27:57.179Z,3.03
2018-05-03T16:32:59.653Z,1.80
2018-05-03T16:38:04.668Z,1.77
2018-05-03T16:43:10.267Z,3.00
2018-05-03T16:48:13.401Z,2.37
2018-05-03T16:53:14.736Z,3.83
2018-05-03T16:58:19.341Z,2.20
2018-05-03T17:03:20.782Z,4.27
2018-05-03T17:08:22.215Z,3.87
2018-05-03T17:13:27.034Z,1.73
2018-05-03T17:18:32.199Z,2.10
2018-05-03T17:23:33.486Z,1.57
2018-05-03T17:28:36.863Z,4.53
2018-05-03T17:33:40.024Z,1.80
2018-05-03T17:38:44.730Z,1.53
2018-05-03T17:43:47.013Z,3.50
2018-05-03T17:48:49.483Z,5.93
2018-05-03T17:53:50.779Z,3.13
2018-05-03T17:58:56.421Z,4.73
2018-05-03T18:04:00.546Z,2.40
2018-05-03T18:09:02.546Z,2.60
2018-05-03T18:14:06.452Z,3.17
2018-05-03T18:19:07.713Z,4.57
2018-05-03T18:24:09.053Z,4.47
2018-05-03T18:29:10.406Z,2.47
2018-05-03T18:34:12.558Z,2.00
2018-05-03T18:39:13.911Z,3.17
2018-05-03T18:44:15.370Z,3.03
2018-05-03T18:49:17.743Z,2.43
2018-05-03T18:54:20.073Z,2.23
2018-05-03T18:59:21.612Z,1.83
2018-05-03T19:04:24.761Z,3.53
2018-05-03T19:09:36.204Z,6.12
2018-05-03T19:14:43.188Z,1.85
2018-05-03T19:25:13.059Z,3.40
2018-05-03T19:30:14.725Z,4.03
2018-05-03T19:35:16.034Z,1.43
2018-05-03T19:40:17.311Z,3.00
2018-05-03T19:45:19.720Z,3.30
2018-05-03T19:50:21.197Z,7.13
2018-05-03T19:55:23.646Z,1.87
2018-05-03T20:00:26.061Z,3.23
2018-05-03T20:05:27.514Z,3.30
2018-05-03T20:10:29.010Z,1.83
2018-05-03T20:15:30.434Z,6.10
2018-05-03T20:20:32.618Z,3.50
2018-05-03T20:25:34.985Z,3.43
2018-05-03T20:30:36.299Z,3.70
2018-05-03T20:35:37.753Z,1.30
2018-05-03T20:40:39.138Z,4.90
2018-05-03T20:45:42.534Z,5.10
2018-05-03T20:50:45.517Z,3.70
2018-05-03T20:55:46.962Z,5.40
2018-05-03T21:00:48.947Z,2.80
2018-05-03T21:05:50.367Z,3.03
2018-05-03T21:10:52.407Z,8.87
2018-05-03T21:15:53.751Z,5.00
2018-05-03T21:20:56.318Z,5.63
2018-05-03T21:25:58.607Z,2.73
2018-05-03T21:31:00.751Z,3.57
2018-05-03T21:36:02.426Z,4.73
2018-05-03T21:41:04.824Z,6.20
2018-05-03T21:46:07.082Z,8.43
2018-05-03T21:51:08.733Z,6.33
2018-05-03T21:56:11.139Z,2.50
2018-05-03T22:01:12.685Z,3.53
2018-05-03T22:06:14.143Z,5.23
2018-05-03T22:11:15.403Z,3.70
2018-05-03T22:16:16.922Z,4.73
2018-05-03T22:21:18.301Z,3.00
2018-05-03T22:26:20.456Z,3.87
2018-05-03T22:31:21.916Z,2.63
2018-05-03T22:36:23.392Z,7.50
2018-05-03T22:41:25.554Z,4.13
2018-05-03T22:46:27.900Z,5.00
2018-05-03T22:51:29.233Z,3.90
2018-05-03T22:56:30.596Z,2.90
2018-05-03T23:01:33.820Z,7.63
2018-05-03T23:06:35.950Z,3.57
2018-05-03T23:11:37.288Z,5.20
2018-05-03T23:16:39.675Z,3.43
2018-05-03T23:21:41.115Z,3.80
2018-05-03T23:26:42.449Z,6.37
2018-05-03T23:31:43.802Z,5.20
2018-05-03T23:36:45.060Z,5.17
2018-05-03T23:41:46.321Z,4.37
2018-05-03T23:46:47.602Z,4.00
2018-05-03T23:51:48.960Z,4.13
2018-05-03T23:56:50.398Z,5.00
